sensor_id;sensor_type;location;lat;lon;timestamp;temperature;humidity
34147;DHT22;20423;49.448;9.056;2023-07-09T00:01:54;18.80;99.90
34147;DHT22;20423;49.448;9.056;2023-07-09T00:04:20;18.80;99.90
34147;DHT22;20423;49.448;9.056;2023-07-09T00:06:46;18.80;99.90
34147;DHT22;20423;49.448;9.056;2023-07-09T00:09:16;18.80;99.90
34147;DHT22;20423;49.448;9.056;2023-07-09T00:11:43;18.70;99.90
34147;DHT22;20423;49.448;9.056;2023-07-09T00:14:12;18.70;99.90
34147;DHT22;20423;49.448;9.056;2023-07-09T00:19:41;18.60;99.90
34147;DHT22;20423;49.448;9.056;2023-07-09T00:22:13;18.70;99.90
34147;DHT22;20423;49.448;9.056;2023-07-09T00:27:48;18.80;99.90
34147;DHT22;20423;49.448;9.056;2023-07-09T00:30:17;18.90;99.90
34147;DHT22;20423;49.448;9.056;2023-07-09T00:32:43;18.90;99.90
34147;DHT22;20423;49.448;9.056;2023-07-09T00:35:12;18.80;99.90
34147;DHT22;20423;49.448;9.056;2023-07-09T00:37:42;18.80;99.90
34147;DHT22;20423;49.448;9.056;2023-07-09T00:40:18;18.80;99.90
34147;DHT22;20423;49.448;9.056;2023-07-09T00:42:45;18.70;99.90
34147;DHT22;20423;49.448;9.056;2023-07-09T00:45:22;18.60;99.90
34147;DHT22;20423;49.448;9.056;2023-07-09T00:50:15;18.50;99.90
34147;DHT22;20423;49.448;9.056;2023-07-09T00:52:51;18.50;99.90
34147;DHT22;20423;49.448;9.056;2023-07-09T00:55:21;18.40;99.90
34147;DHT22;20423;49.448;9.056;2023-07-09T00:57:48;18.40;99.90
34147;DHT22;20423;49.448;9.056;2023-07-09T01:00:22;18.30;99.90
34147;DHT22;20423;49.448;9.056;2023-07-09T01:02:50;18.40;99.90
34147;DHT22;20423;49.448;9.056;2023-07-09T01:05:31;18.30;99.90
34147;DHT22;20423;49.448;9.056;2023-07-09T01:07:59;18.20;99.90
34147;DHT22;20423;49.448;9.056;2023-07-09T01:10:25;18.20;99.90
34147;DHT22;20423;49.448;9.056;2023-07-09T01:12:51;18.20;99.90
34147;DHT22;20423;49.448;9.056;2023-07-09T01:15:17;18.10;99.90
34147;DHT22;20423;49.448;9.056;2023-07-09T01:17:42;18.10;99.90
34147;DHT22;20423;49.448;9.056;2023-07-09T01:20:18;18.10;99.90
34147;DHT22;20423;49.448;9.056;2023-07-09T01:22:47;18.10;99.90
34147;DHT22;20423;49.448;9.056;2023-07-09T01:25:14;18.00;99.90
34147;DHT22;20423;49.448;9.056;2023-07-09T01:27:41;18.00;99.90
34147;DHT22;20423;49.448;9.056;2023-07-09T01:30:09;17.90;99.90
34147;DHT22;20423;49.448;9.056;2023-07-09T01:32:36;17.90;99.90
34147;DHT22;20423;49.448;9.056;2023-07-09T01:35:03;17.80;99.90
34147;DHT22;20423;49.448;9.056;2023-07-09T01:37:34;17.80;99.90
34147;DHT22;20423;49.448;9.056;2023-07-09T01:40:00;17.80;99.90
34147;DHT22;20423;49.448;9.056;2023-07-09T01:42:26;17.70;99.90
34147;DHT22;20423;49.448;9.056;2023-07-09T01:44:54;17.70;99.90
34147;DHT22;20423;49.448;9.056;2023-07-09T01:47:20;17.70;99.90
34147;DHT22;20423;49.448;9.056;2023-07-09T01:49:46;17.70;99.90
34147;DHT22;20423;49.448;9.056;2023-07-09T01:52:12;17.60;99.90
34147;DHT22;20423;49.448;9.056;2023-07-09T01:54:39;17.60;99.90
34147;DHT22;20423;49.448;9.056;2023-07-09T01:57:19;17.70;99.90
34147;DHT22;20423;49.448;9.056;2023-07-09T01:59:49;17.60;99.90
34147;DHT22;20423;49.448;9.056;2023-07-09T02:02:14;17.70;99.90
34147;DHT22;20423;49.448;9.056;2023-07-09T02:04:51;17.70;99.90
34147;DHT22;20423;49.448;9.056;2023-07-09T02:07:17;17.70;99.90
34147;DHT22;20423;49.448;9.056;2023-07-09T02:09:59;17.70;99.90
34147;DHT22;20423;49.448;9.056;2023-07-09T02:12:25;17.70;99.90
34147;DHT22;20423;49.448;9.056;2023-07-09T02:14:50;17.60;99.90
34147;DHT22;20423;49.448;9.056;2023-07-09T02:17:16;17.60;99.90
34147;DHT22;20423;49.448;9.056;2023-07-09T02:19:42;17.60;99.90
34147;DHT22;20423;49.448;9.056;2023-07-09T02:22:08;17.60;99.90
34147;DHT22;20423;49.448;9.056;2023-07-09T02:24:34;17.60;99.90
34147;DHT22;20423;49.448;9.056;2023-07-09T02:27:00;17.60;99.90
34147;DHT22;20423;49.448;9.056;2023-07-09T02:29:27;17.60;99.90
34147;DHT22;20423;49.448;9.056;2023-07-09T02:31:54;17.60;99.90
34147;DHT22;20423;49.448;9.056;2023-07-09T02:34:20;17.50;99.90
34147;DHT22;20423;49.448;9.056;2023-07-09T02:36:46;17.50;99.90
34147;DHT22;20423;49.448;9.056;2023-07-09T02:39:13;17.50;99.90
34147;DHT22;20423;49.448;9.056;2023-07-09T02:41:39;17.50;99.90
34147;DHT22;20423;49.448;9.056;2023-07-09T02:44:06;17.50;99.90
34147;DHT22;20423;49.448;9.056;2023-07-09T02:46:32;17.50;99.90
34147;DHT22;20423;49.448;9.056;2023-07-09T02:48:58;17.40;99.90
34147;DHT22;20423;49.448;9.056;2023-07-09T02:51:24;17.40;99.90
34147;DHT22;20423;49.448;9.056;2023-07-09T02:53:56;17.50;99.90
34147;DHT22;20423;49.448;9.056;2023-07-09T02:56:22;17.50;99.90
34147;DHT22;20423;49.448;9.056;2023-07-09T02:58:48;17.50;99.90
34147;DHT22;20423;49.448;9.056;2023-07-09T03:01:14;17.50;99.90
34147;DHT22;20423;49.448;9.056;2023-07-09T03:03:40;17.50;99.90
34147;DHT22;20423;49.448;9.056;2023-07-09T03:06:06;17.50;99.90
34147;DHT22;20423;49.448;9.056;2023-07-09T03:08:32;17.40;99.90
34147;DHT22;20423;49.448;9.056;2023-07-09T03:10:58;17.40;99.90
34147;DHT22;20423;49.448;9.056;2023-07-09T03:13:24;17.40;99.90
34147;DHT22;20423;49.448;9.056;2023-07-09T03:15:56;17.50;99.90
34147;DHT22;20423;49.448;9.056;2023-07-09T03:18:22;17.40;99.90
34147;DHT22;20423;49.448;9.056;2023-07-09T03:20:47;17.40;99.90
34147;DHT22;20423;49.448;9.056;2023-07-09T03:23:13;17.40;99.90
34147;DHT22;20423;49.448;9.056;2023-07-09T03:25:40;17.40;99.90
34147;DHT22;20423;49.448;9.056;2023-07-09T03:28:06;17.40;99.90
34147;DHT22;20423;49.448;9.056;2023-07-09T03:30:31;17.30;99.90
34147;DHT22;20423;49.448;9.056;2023-07-09T03:32:57;17.40;99.90
34147;DHT22;20423;49.448;9.056;2023-07-09T03:35:23;17.40;99.90
34147;DHT22;20423;49.448;9.056;2023-07-09T03:37:49;17.40;99.90
34147;DHT22;20423;49.448;9.056;2023-07-09T03:40:20;17.40;99.90
34147;DHT22;20423;49.448;9.056;2023-07-09T03:42:46;17.40;99.90
34147;DHT22;20423;49.448;9.056;2023-07-09T03:45:11;17.50;99.90
34147;DHT22;20423;49.448;9.056;2023-07-09T03:47:37;17.50;99.90
34147;DHT22;20423;49.448;9.056;2023-07-09T03:50:04;17.50;99.90
34147;DHT22;20423;49.448;9.056;2023-07-09T03:52:33;17.50;99.90
34147;DHT22;20423;49.448;9.056;2023-07-09T03:54:58;17.60;99.90
34147;DHT22;20423;49.448;9.056;2023-07-09T03:57:26;17.60;99.90
34147;DHT22;20423;49.448;9.056;2023-07-09T03:59:52;17.60;99.90
34147;DHT22;20423;49.448;9.056;2023-07-09T04:02:18;17.70;99.90
34147;DHT22;20423;49.448;9.056;2023-07-09T04:04:44;17.80;99.90
34147;DHT22;20423;49.448;9.056;2023-07-09T04:07:09;17.80;99.90
34147;DHT22;20423;49.448;9.056;2023-07-09T04:09:35;17.80;99.90
34147;DHT22;20423;49.448;9.056;2023-07-09T04:12:01;17.90;99.90
34147;DHT22;20423;49.448;9.056;2023-07-09T04:14:28;17.90;99.90
34147;DHT22;20423;49.448;9.056;2023-07-09T04:16:54;17.90;99.90
34147;DHT22;20423;49.448;9.056;2023-07-09T04:19:20;17.90;99.90
34147;DHT22;20423;49.448;9.056;2023-07-09T04:21:46;18.00;99.90
34147;DHT22;20423;49.448;9.056;2023-07-09T04:24:16;18.00;99.90
34147;DHT22;20423;49.448;9.056;2023-07-09T04:26:42;18.10;99.90
34147;DHT22;20423;49.448;9.056;2023-07-09T04:29:08;18.20;99.90
34147;DHT22;20423;49.448;9.056;2023-07-09T04:31:33;18.30;99.90
34147;DHT22;20423;49.448;9.056;2023-07-09T04:33:59;18.40;99.90
34147;DHT22;20423;49.448;9.056;2023-07-09T04:36:25;18.50;99.90
34147;DHT22;20423;49.448;9.056;2023-07-09T04:38:51;18.60;99.90
34147;DHT22;20423;49.448;9.056;2023-07-09T04:41:17;18.60;99.90
34147;DHT22;20423;49.448;9.056;2023-07-09T04:43:43;18.70;99.90
34147;DHT22;20423;49.448;9.056;2023-07-09T04:46:08;18.80;99.90
34147;DHT22;20423;49.448;9.056;2023-07-09T04:48:34;18.90;99.90
34147;DHT22;20423;49.448;9.056;2023-07-09T04:51:00;19.00;99.90
34147;DHT22;20423;49.448;9.056;2023-07-09T04:53:32;19.10;99.90
34147;DHT22;20423;49.448;9.056;2023-07-09T04:55:58;19.20;99.90
34147;DHT22;20423;49.448;9.056;2023-07-09T04:58:23;19.30;99.90
34147;DHT22;20423;49.448;9.056;2023-07-09T05:00:49;19.40;99.90
34147;DHT22;20423;49.448;9.056;2023-07-09T05:03:17;19.50;99.90
34147;DHT22;20423;49.448;9.056;2023-07-09T05:05:43;19.60;99.90
34147;DHT22;20423;49.448;9.056;2023-07-09T05:08:09;19.70;99.90
34147;DHT22;20423;49.448;9.056;2023-07-09T05:10:40;19.80;99.90
34147;DHT22;20423;49.448;9.056;2023-07-09T05:13:06;19.90;99.90
34147;DHT22;20423;49.448;9.056;2023-07-09T05:15:32;20.00;99.90
34147;DHT22;20423;49.448;9.056;2023-07-09T05:17:57;20.10;99.90
34147;DHT22;20423;49.448;9.056;2023-07-09T05:20:23;20.30;99.90
34147;DHT22;20423;49.448;9.056;2023-07-09T05:22:50;20.40;99.90
34147;DHT22;20423;49.448;9.056;2023-07-09T05:25:16;20.60;99.90
34147;DHT22;20423;49.448;9.056;2023-07-09T05:27:42;20.70;99.90
34147;DHT22;20423;49.448;9.056;2023-07-09T05:30:08;20.90;99.90
34147;DHT22;20423;49.448;9.056;2023-07-09T05:32:34;21.10;99.90
34147;DHT22;20423;49.448;9.056;2023-07-09T05:35:00;21.30;99.90
34147;DHT22;20423;49.448;9.056;2023-07-09T05:37:26;21.40;99.90
34147;DHT22;20423;49.448;9.056;2023-07-09T05:39:52;21.60;99.90
34147;DHT22;20423;49.448;9.056;2023-07-09T05:42:17;21.80;99.90
34147;DHT22;20423;49.448;9.056;2023-07-09T05:44:44;21.90;99.90
34147;DHT22;20423;49.448;9.056;2023-07-09T05:47:09;22.10;99.90
34147;DHT22;20423;49.448;9.056;2023-07-09T05:49:35;22.20;99.90
34147;DHT22;20423;49.448;9.056;2023-07-09T05:52:01;22.30;99.90
34147;DHT22;20423;49.448;9.056;2023-07-09T05:54:26;22.50;99.90
34147;DHT22;20423;49.448;9.056;2023-07-09T05:56:52;22.60;99.90
34147;DHT22;20423;49.448;9.056;2023-07-09T05:59:18;22.70;99.90
34147;DHT22;20423;49.448;9.056;2023-07-09T06:01:43;22.90;99.90
34147;DHT22;20423;49.448;9.056;2023-07-09T06:04:24;23.00;99.90
34147;DHT22;20423;49.448;9.056;2023-07-09T06:06:59;23.10;99.90
34147;DHT22;20423;49.448;9.056;2023-07-09T06:12:53;23.30;99.90
34147;DHT22;20423;49.448;9.056;2023-07-09T06:15:19;23.50;99.90
34147;DHT22;20423;49.448;9.056;2023-07-09T06:17:45;23.60;99.90
34147;DHT22;20423;49.448;9.056;2023-07-09T06:20:10;23.70;99.90
34147;DHT22;20423;49.448;9.056;2023-07-09T06:25:24;24.00;99.90
34147;DHT22;20423;49.448;9.056;2023-07-09T06:27:49;24.20;99.90
34147;DHT22;20423;49.448;9.056;2023-07-09T06:30:15;24.30;99.90
34147;DHT22;20423;49.448;9.056;2023-07-09T06:32:43;24.40;99.90
34147;DHT22;20423;49.448;9.056;2023-07-09T06:35:09;24.60;99.90
34147;DHT22;20423;49.448;9.056;2023-07-09T06:37:34;24.60;99.90
34147;DHT22;20423;49.448;9.056;2023-07-09T06:40:00;24.70;99.90
34147;DHT22;20423;49.448;9.056;2023-07-09T06:42:28;24.80;99.90
34147;DHT22;20423;49.448;9.056;2023-07-09T06:45:02;25.00;99.90
34147;DHT22;20423;49.448;9.056;2023-07-09T06:47:29;25.10;99.90
34147;DHT22;20423;49.448;9.056;2023-07-09T06:49:54;25.30;99.90
34147;DHT22;20423;49.448;9.056;2023-07-09T06:52:20;25.40;99.90
34147;DHT22;20423;49.448;9.056;2023-07-09T06:54:46;25.50;99.90
34147;DHT22;20423;49.448;9.056;2023-07-09T06:57:11;25.60;99.90
34147;DHT22;20423;49.448;9.056;2023-07-09T06:59:37;25.70;99.90
34147;DHT22;20423;49.448;9.056;2023-07-09T07:02:04;25.70;99.90
34147;DHT22;20423;49.448;9.056;2023-07-09T07:04:29;25.70;99.90
34147;DHT22;20423;49.448;9.056;2023-07-09T07:06:56;25.80;99.90
34147;DHT22;20423;49.448;9.056;2023-07-09T07:09:22;25.80;99.90
34147;DHT22;20423;49.448;9.056;2023-07-09T07:11:49;25.80;99.90
34147;DHT22;20423;49.448;9.056;2023-07-09T07:14:14;25.90;99.90
34147;DHT22;20423;49.448;9.056;2023-07-09T07:16:40;26.00;99.90
34147;DHT22;20423;49.448;9.056;2023-07-09T07:19:06;25.90;99.90
34147;DHT22;20423;49.448;9.056;2023-07-09T07:21:35;26.00;99.90
34147;DHT22;20423;49.448;9.056;2023-07-09T07:24:01;26.20;99.90
34147;DHT22;20423;49.448;9.056;2023-07-09T07:26:27;26.80;99.90
34147;DHT22;20423;49.448;9.056;2023-07-09T07:28:52;27.90;99.90
34147;DHT22;20423;49.448;9.056;2023-07-09T07:31:18;29.30;99.90
34147;DHT22;20423;49.448;9.056;2023-07-09T07:33:44;30.30;98.60
34147;DHT22;20423;49.448;9.056;2023-07-09T07:36:10;31.50;97.00
34147;DHT22;20423;49.448;9.056;2023-07-09T07:38:36;32.30;94.30
34147;DHT22;20423;49.448;9.056;2023-07-09T07:41:02;32.70;93.00
34147;DHT22;20423;49.448;9.056;2023-07-09T07:43:28;32.20;91.60
34147;DHT22;20423;49.448;9.056;2023-07-09T07:45:53;31.20;92.80
34147;DHT22;20423;49.448;9.056;2023-07-09T07:48:19;30.30;93.20
34147;DHT22;20423;49.448;9.056;2023-07-09T07:50:45;29.40;94.20
34147;DHT22;20423;49.448;9.056;2023-07-09T07:53:14;28.90;94.40
34147;DHT22;20423;49.448;9.056;2023-07-09T07:55:40;28.60;94.80
34147;DHT22;20423;49.448;9.056;2023-07-09T07:58:09;28.40;95.40
34147;DHT22;20423;49.448;9.056;2023-07-09T08:00:34;28.40;94.80
34147;DHT22;20423;49.448;9.056;2023-07-09T08:03:00;28.50;94.40
34147;DHT22;20423;49.448;9.056;2023-07-09T08:05:26;29.60;93.90
34147;DHT22;20423;49.448;9.056;2023-07-09T08:07:52;30.90;93.30
34147;DHT22;20423;49.448;9.056;2023-07-09T08:10:17;32.30;91.50
34147;DHT22;20423;49.448;9.056;2023-07-09T08:12:44;33.60;87.40
34147;DHT22;20423;49.448;9.056;2023-07-09T08:15:09;34.00;84.60
34147;DHT22;20423;49.448;9.056;2023-07-09T08:17:35;34.80;81.10
34147;DHT22;20423;49.448;9.056;2023-07-09T08:20:01;35.30;77.30
34147;DHT22;20423;49.448;9.056;2023-07-09T08:22:27;36.00;75.60
34147;DHT22;20423;49.448;9.056;2023-07-09T08:24:52;35.70;73.90
34147;DHT22;20423;49.448;9.056;2023-07-09T08:27:18;35.70;71.30
34147;DHT22;20423;49.448;9.056;2023-07-09T08:29:44;35.60;69.00
34147;DHT22;20423;49.448;9.056;2023-07-09T08:32:10;36.10;70.80
34147;DHT22;20423;49.448;9.056;2023-07-09T08:34:37;36.70;69.00
34147;DHT22;20423;49.448;9.056;2023-07-09T08:37:03;37.30;67.20
34147;DHT22;20423;49.448;9.056;2023-07-09T08:39:29;37.20;65.00
34147;DHT22;20423;49.448;9.056;2023-07-09T08:42:02;37.60;64.00
34147;DHT22;20423;49.448;9.056;2023-07-09T08:47:13;37.20;62.10
34147;DHT22;20423;49.448;9.056;2023-07-09T08:49:44;36.40;63.50
34147;DHT22;20423;49.448;9.056;2023-07-09T08:55:20;36.20;64.20
34147;DHT22;20423;49.448;9.056;2023-07-09T08:57:47;36.50;64.10
34147;DHT22;20423;49.448;9.056;2023-07-09T09:00:17;36.30;64.50
34147;DHT22;20423;49.448;9.056;2023-07-09T09:02:49;36.70;62.10
34147;DHT22;20423;49.448;9.056;2023-07-09T09:05:17;36.60;62.80
34147;DHT22;20423;49.448;9.056;2023-07-09T09:07:44;37.20;63.00
34147;DHT22;20423;49.448;9.056;2023-07-09T09:10:11;36.30;62.40
34147;DHT22;20423;49.448;9.056;2023-07-09T09:12:41;36.30;61.50
34147;DHT22;20423;49.448;9.056;2023-07-09T09:15:13;36.10;62.00
34147;DHT22;20423;49.448;9.056;2023-07-09T09:17:40;36.10;62.30
34147;DHT22;20423;49.448;9.056;2023-07-09T09:20:21;36.50;60.90
34147;DHT22;20423;49.448;9.056;2023-07-09T09:25:32;36.50;58.00
34147;DHT22;20423;49.448;9.056;2023-07-09T09:28:01;37.00;57.90
34147;DHT22;20423;49.448;9.056;2023-07-09T09:30:27;37.10;58.20
34147;DHT22;20423;49.448;9.056;2023-07-09T09:32:54;37.80;58.80
34147;DHT22;20423;49.448;9.056;2023-07-09T09:35:25;38.20;57.00
34147;DHT22;20423;49.448;9.056;2023-07-09T09:37:52;38.40;56.60
34147;DHT22;20423;49.448;9.056;2023-07-09T09:40:19;37.70;56.40
34147;DHT22;20423;49.448;9.056;2023-07-09T09:42:49;37.60;55.60
34147;DHT22;20423;49.448;9.056;2023-07-09T09:45:16;36.60;58.30
34147;DHT22;20423;49.448;9.056;2023-07-09T09:47:43;36.70;58.00
34147;DHT22;20423;49.448;9.056;2023-07-09T09:50:19;36.60;58.30
34147;DHT22;20423;49.448;9.056;2023-07-09T09:52:45;36.60;57.90
34147;DHT22;20423;49.448;9.056;2023-07-09T09:55:15;36.20;58.70
34147;DHT22;20423;49.448;9.056;2023-07-09T09:57:47;36.00;57.90
34147;DHT22;20423;49.448;9.056;2023-07-09T10:00:14;36.50;58.80
34147;DHT22;20423;49.448;9.056;2023-07-09T10:02:41;37.30;57.60
34147;DHT22;20423;49.448;9.056;2023-07-09T10:05:16;38.00;57.40
34147;DHT22;20423;49.448;9.056;2023-07-09T10:07:47;38.50;55.90
34147;DHT22;20423;49.448;9.056;2023-07-09T10:10:19;38.50;54.30
34147;DHT22;20423;49.448;9.056;2023-07-09T10:12:49;37.30;55.90
34147;DHT22;20423;49.448;9.056;2023-07-09T10:22:55;36.50;51.80
34147;DHT22;20423;49.448;9.056;2023-07-09T10:25:31;36.00;53.30
34147;DHT22;20423;49.448;9.056;2023-07-09T10:28:06;35.40;53.90
34147;DHT22;20423;49.448;9.056;2023-07-09T10:30:47;35.50;55.40
34147;DHT22;20423;49.448;9.056;2023-07-09T10:33:26;35.90;54.80
34147;DHT22;20423;49.448;9.056;2023-07-09T10:40:55;35.10;55.70
34147;DHT22;20423;49.448;9.056;2023-07-09T10:46:19;35.20;53.90
34147;DHT22;20423;49.448;9.056;2023-07-09T10:48:46;35.20;54.80
34147;DHT22;20423;49.448;9.056;2023-07-09T10:53:58;35.10;54.10
34147;DHT22;20423;49.448;9.056;2023-07-09T10:56:28;35.30;54.70
34147;DHT22;20423;49.448;9.056;2023-07-09T10:59:03;35.50;54.00
34147;DHT22;20423;49.448;9.056;2023-07-09T11:01:32;35.90;54.00
34147;DHT22;20423;49.448;9.056;2023-07-09T11:04:02;36.10;53.30
34147;DHT22;20423;49.448;9.056;2023-07-09T11:06:31;36.60;52.80
34147;DHT22;20423;49.448;9.056;2023-07-09T11:08:59;36.60;54.50
34147;DHT22;20423;49.448;9.056;2023-07-09T11:11:31;36.60;53.60
34147;DHT22;20423;49.448;9.056;2023-07-09T11:14:00;36.40;54.50
34147;DHT22;20423;49.448;9.056;2023-07-09T11:16:28;36.50;54.10
34147;DHT22;20423;49.448;9.056;2023-07-09T11:18:59;36.20;54.10
34147;DHT22;20423;49.448;9.056;2023-07-09T11:21:25;36.20;54.30
34147;DHT22;20423;49.448;9.056;2023-07-09T11:24:00;35.50;52.10
34147;DHT22;20423;49.448;9.056;2023-07-09T11:26:27;35.60;52.70
34147;DHT22;20423;49.448;9.056;2023-07-09T11:28:55;35.90;53.20
34147;DHT22;20423;49.448;9.056;2023-07-09T11:31:25;35.50;53.40
34147;DHT22;20423;49.448;9.056;2023-07-09T11:34:01;35.50;54.20
34147;DHT22;20423;49.448;9.056;2023-07-09T11:36:30;35.70;52.70
34147;DHT22;20423;49.448;9.056;2023-07-09T11:38:55;35.40;54.50
34147;DHT22;20423;49.448;9.056;2023-07-09T11:44:30;35.90;51.40
34147;DHT22;20423;49.448;9.056;2023-07-09T11:49:21;36.60;51.40
34147;DHT22;20423;49.448;9.056;2023-07-09T11:51:50;36.50;52.70
34147;DHT22;20423;49.448;9.056;2023-07-09T11:54:18;36.50;51.80
34147;DHT22;20423;49.448;9.056;2023-07-09T11:56:52;36.70;50.60
34147;DHT22;20423;49.448;9.056;2023-07-09T11:59:18;36.70;49.60
34147;DHT22;20423;49.448;9.056;2023-07-09T12:01:45;37.00;50.50
34147;DHT22;20423;49.448;9.056;2023-07-09T12:04:17;36.70;51.20
34147;DHT22;20423;49.448;9.056;2023-07-09T12:06:44;36.70;50.30
34147;DHT22;20423;49.448;9.056;2023-07-09T12:09:14;36.40;51.70
34147;DHT22;20423;49.448;9.056;2023-07-09T12:11:43;36.20;51.10
34147;DHT22;20423;49.448;9.056;2023-07-09T12:14:13;36.30;50.80
34147;DHT22;20423;49.448;9.056;2023-07-09T12:16:41;36.50;50.80
34147;DHT22;20423;49.448;9.056;2023-07-09T12:19:08;36.60;51.00
34147;DHT22;20423;49.448;9.056;2023-07-09T12:21:34;36.60;49.40
34147;DHT22;20423;49.448;9.056;2023-07-09T12:24:02;36.30;48.20
34147;DHT22;20423;49.448;9.056;2023-07-09T12:26:30;36.20;49.40
34147;DHT22;20423;49.448;9.056;2023-07-09T12:28:56;36.80;49.10
34147;DHT22;20423;49.448;9.056;2023-07-09T12:31:29;37.20;48.20
34147;DHT22;20423;49.448;9.056;2023-07-09T12:33:55;37.30;48.40
34147;DHT22;20423;49.448;9.056;2023-07-09T12:36:22;37.60;48.30
34147;DHT22;20423;49.448;9.056;2023-07-09T12:38:50;37.80;48.50
34147;DHT22;20423;49.448;9.056;2023-07-09T12:41:26;38.20;48.10
34147;DHT22;20423;49.448;9.056;2023-07-09T12:43:53;37.90;48.30
34147;DHT22;20423;49.448;9.056;2023-07-09T12:46:23;37.90;46.60
34147;DHT22;20423;49.448;9.056;2023-07-09T12:48:49;38.40;47.30
34147;DHT22;20423;49.448;9.056;2023-07-09T12:51:25;38.20;47.40
34147;DHT22;20423;49.448;9.056;2023-07-09T12:56:37;38.20;47.70
34147;DHT22;20423;49.448;9.056;2023-07-09T12:59:06;38.40;47.00
34147;DHT22;20423;49.448;9.056;2023-07-09T13:01:39;38.50;47.50
34147;DHT22;20423;49.448;9.056;2023-07-09T13:04:07;38.00;47.60
34147;DHT22;20423;49.448;9.056;2023-07-09T13:06:36;38.00;46.40
34147;DHT22;20423;49.448;9.056;2023-07-09T13:09:05;38.40;47.60
34147;DHT22;20423;49.448;9.056;2023-07-09T13:11:36;38.50;46.00
34147;DHT22;20423;49.448;9.056;2023-07-09T13:14:04;38.90;46.50
34147;DHT22;20423;49.448;9.056;2023-07-09T13:16:30;38.60;45.90
34147;DHT22;20423;49.448;9.056;2023-07-09T13:18:56;38.00;46.80
34147;DHT22;20423;49.448;9.056;2023-07-09T13:21:22;37.40;46.30
34147;DHT22;20423;49.448;9.056;2023-07-09T13:23:48;37.70;45.50
34147;DHT22;20423;49.448;9.056;2023-07-09T13:26:14;37.90;46.20
34147;DHT22;20423;49.448;9.056;2023-07-09T13:28:41;38.70;45.60
34147;DHT22;20423;49.448;9.056;2023-07-09T13:31:09;39.00;46.60
34147;DHT22;20423;49.448;9.056;2023-07-09T13:33:35;38.80;47.00
34147;DHT22;20423;49.448;9.056;2023-07-09T13:36:02;38.70;46.20
34147;DHT22;20423;49.448;9.056;2023-07-09T13:38:28;38.90;44.10
34147;DHT22;20423;49.448;9.056;2023-07-09T13:40:55;38.80;45.30
34147;DHT22;20423;49.448;9.056;2023-07-09T13:46:13;38.50;46.80
34147;DHT22;20423;49.448;9.056;2023-07-09T13:48:39;38.60;46.70
34147;DHT22;20423;49.448;9.056;2023-07-09T13:51:16;39.20;46.60
34147;DHT22;20423;49.448;9.056;2023-07-09T13:53:42;39.10;46.80
34147;DHT22;20423;49.448;9.056;2023-07-09T13:56:08;38.80;45.70
34147;DHT22;20423;49.448;9.056;2023-07-09T13:58:33;38.50;45.30
34147;DHT22;20423;49.448;9.056;2023-07-09T14:01:01;38.20;45.30
34147;DHT22;20423;49.448;9.056;2023-07-09T14:03:32;39.00;46.60
34147;DHT22;20423;49.448;9.056;2023-07-09T14:05:58;39.70;45.70
34147;DHT22;20423;49.448;9.056;2023-07-09T14:08:24;39.80;44.80
34147;DHT22;20423;49.448;9.056;2023-07-09T14:10:50;39.60;44.30
34147;DHT22;20423;49.448;9.056;2023-07-09T14:13:17;39.70;43.30
34147;DHT22;20423;49.448;9.056;2023-07-09T14:15:43;39.60;43.40
34147;DHT22;20423;49.448;9.056;2023-07-09T14:18:19;39.60;43.90
34147;DHT22;20423;49.448;9.056;2023-07-09T14:20:46;39.90;44.40
34147;DHT22;20423;49.448;9.056;2023-07-09T14:23:12;40.20;44.60
34147;DHT22;20423;49.448;9.056;2023-07-09T14:25:38;40.10;43.10
34147;DHT22;20423;49.448;9.056;2023-07-09T14:28:07;40.10;43.30
34147;DHT22;20423;49.448;9.056;2023-07-09T14:30:34;40.10;43.50
34147;DHT22;20423;49.448;9.056;2023-07-09T14:33:00;40.00;43.10
34147;DHT22;20423;49.448;9.056;2023-07-09T14:35:25;40.00;44.20
34147;DHT22;20423;49.448;9.056;2023-07-09T14:37:52;40.20;42.80
34147;DHT22;20423;49.448;9.056;2023-07-09T14:40:20;39.70;41.80
34147;DHT22;20423;49.448;9.056;2023-07-09T14:42:46;39.50;42.80
34147;DHT22;20423;49.448;9.056;2023-07-09T14:45:22;39.30;43.20
34147;DHT22;20423;49.448;9.056;2023-07-09T14:47:49;39.50;42.30
34147;DHT22;20423;49.448;9.056;2023-07-09T14:50:15;39.50;41.90
34147;DHT22;20423;49.448;9.056;2023-07-09T14:55:31;40.00;42.10
34147;DHT22;20423;49.448;9.056;2023-07-09T14:57:57;39.30;42.30
34147;DHT22;20423;49.448;9.056;2023-07-09T15:00:26;39.50;43.10
34147;DHT22;20423;49.448;9.056;2023-07-09T15:02:52;39.90;43.10
34147;DHT22;20423;49.448;9.056;2023-07-09T15:05:19;40.30;41.80
34147;DHT22;20423;49.448;9.056;2023-07-09T15:07:46;40.00;41.70
34147;DHT22;20423;49.448;9.056;2023-07-09T15:10:16;39.30;42.30
34147;DHT22;20423;49.448;9.056;2023-07-09T15:12:42;39.00;42.70
34147;DHT22;20423;49.448;9.056;2023-07-09T15:17:37;38.20;43.00
34147;DHT22;20423;49.448;9.056;2023-07-09T15:20:03;37.70;42.90
34147;DHT22;20423;49.448;9.056;2023-07-09T15:22:33;37.50;43.40
34147;DHT22;20423;49.448;9.056;2023-07-09T15:25:00;37.50;42.70
34147;DHT22;20423;49.448;9.056;2023-07-09T15:27:25;37.30;42.60
34147;DHT22;20423;49.448;9.056;2023-07-09T15:29:51;37.60;43.00
34147;DHT22;20423;49.448;9.056;2023-07-09T15:32:17;38.50;42.10
34147;DHT22;20423;49.448;9.056;2023-07-09T15:34:43;38.90;40.90
34147;DHT22;20423;49.448;9.056;2023-07-09T15:37:12;38.80;41.80
34147;DHT22;20423;49.448;9.056;2023-07-09T15:39:39;38.80;41.50
34147;DHT22;20423;49.448;9.056;2023-07-09T15:42:12;39.00;42.10
34147;DHT22;20423;49.448;9.056;2023-07-09T15:47:29;39.30;41.70
34147;DHT22;20423;49.448;9.056;2023-07-09T15:49:55;39.10;41.30
34147;DHT22;20423;49.448;9.056;2023-07-09T15:52:20;38.60;40.90
34147;DHT22;20423;49.448;9.056;2023-07-09T15:54:46;38.40;43.20
34147;DHT22;20423;49.448;9.056;2023-07-09T15:57:13;38.20;43.60
34147;DHT22;20423;49.448;9.056;2023-07-09T15:59:40;37.90;42.30
34147;DHT22;20423;49.448;9.056;2023-07-09T16:02:10;37.60;43.70
34147;DHT22;20423;49.448;9.056;2023-07-09T16:04:36;37.30;45.70
34147;DHT22;20423;49.448;9.056;2023-07-09T16:07:02;37.60;45.10
34147;DHT22;20423;49.448;9.056;2023-07-09T16:09:28;38.00;43.80
34147;DHT22;20423;49.448;9.056;2023-07-09T16:11:54;38.40;44.80
34147;DHT22;20423;49.448;9.056;2023-07-09T16:14:24;38.70;44.00
34147;DHT22;20423;49.448;9.056;2023-07-09T16:16:52;38.90;44.00
34147;DHT22;20423;49.448;9.056;2023-07-09T16:19:22;39.40;43.50
34147;DHT22;20423;49.448;9.056;2023-07-09T16:21:50;39.50;41.80
34147;DHT22;20423;49.448;9.056;2023-07-09T16:24:18;39.50;41.70
34147;DHT22;20423;49.448;9.056;2023-07-09T16:26:44;40.10;42.20
34147;DHT22;20423;49.448;9.056;2023-07-09T16:29:14;40.40;42.00
34147;DHT22;20423;49.448;9.056;2023-07-09T16:31:41;40.50;42.00
34147;DHT22;20423;49.448;9.056;2023-07-09T16:34:06;39.50;41.20